weather.gov     
National Weather Service

Terminal Aerodrome Forecast
NWS Homepage
This page is being discontinued on March 12, 2014.
The same data is available at this site. Please update your bookmarks.
Thank you, and we apologize for the inconvenience.
Please send an email to SR-SRH.Webmaster@noaa.gov with any concerns.


Current Version
Previous Version:    01  02  03  04  05  06  07  08  09  10  11  12  13  14  15  16  17  18  19  20  21  22  23  
[Printable]
695
FTUS43 KLMK 311700
TAFLEX
TAF
KLEX 311722Z 3118/0118 29010G15KT 6SM BR VCSH SCT010 OVC025
      TEMPO 3118/3119 5SM -SHRA BR BKN010
     FM311900 31013G20KT 5SM -SHRA BR SCT015 OVC025
      TEMPO 3119/3123 4SM -SHRA BR BKN015
     FM010200 31014G25KT 5SM -RASN BR OVC015
     FM010400 32015G24KT 3SM -SN BR OVC010
     FM011200 34015KT P6SM BKN012=


U.S. Dept. of Commerce
NOAA National Weather Service
1325 East West Highway
Silver Spring, MD 20910
E-mail: w-nws.webmaster@noaa.gov
Page last modified: May 16, 2007
NATIONAL WEATHER SERVICE: for Safety, for Work, for Fun - FOR LIFE